Time,TemperatureF,DewpointF,PressureIn,WindDirection,WindDirectionDegrees,WindSpeedMPH,WindSpeedGustMPH,Humidity,HourlyPrecipIn,Conditions,Clouds,dailyrainin,SoftwareType,DateUTC
2013-06-16 00:02:00,62.0,54.3,29.99,ENE,73,6.0,9.0,76,0.00,,,0.00,Wunderground v.1.15,2013-06-16 04:02:00,
2013-06-16 00:04:00,62.0,54.3,29.99,ENE,73,7.0,9.0,76,0.00,,,0.00,Wunderground v.1.15,2013-06-16 04:04:00,
2013-06-16 00:06:00,62.0,54.3,29.99,ENE,73,7.0,9.0,76,0.00,,,0.00,Wunderground v.1.15,2013-06-16 04:06:00,
2013-06-16 00:10:00,61.9,54.2,29.99,ENE,73,7.0,7.0,76,0.00,,,0.00,Wunderground v.1.15,2013-06-16 04:10:00,
2013-06-16 00:16:00,61.7,54.8,29.99,ENE,73,6.0,9.0,78,0.00,,,0.00,Wunderground v.1.15,2013-06-16 04:16:00,
2013-06-16 00:22:00,61.7,55.1,29.99,ENE,74,6.0,11.0,79,0.00,,,0.00,Wunderground v.1.15,2013-06-16 04:22:00,
2013-06-16 00:28:00,61.6,55.0,30.00,ENE,73,7.0,11.0,79,0.00,,,0.00,Wunderground v.1.15,2013-06-16 04:28:00,
2013-06-16 00:34:00,61.5,55.3,29.99,ENE,73,6.0,9.0,80,0.00,,,0.00,Wunderground v.1.15,2013-06-16 04:34:00,
2013-06-16 00:40:00,61.4,55.2,29.99,ENE,73,6.0,9.0,80,0.00,,,0.00,Wunderground v.1.15,2013-06-16 04:40:00,
2013-06-16 00:46:00,61.2,55.3,29.99,ENE,74,6.0,9.0,81,0.00,,,0.00,Wunderground v.1.15,2013-06-16 04:46:00,
2013-06-16 00:52:00,61.1,55.2,29.99,ENE,73,6.0,9.0,81,0.00,,,0.00,Wunderground v.1.15,2013-06-16 04:52:00,
2013-06-16 00:58:00,61.0,55.1,29.99,ENE,73,6.0,9.0,81,0.00,,,0.00,Wunderground v.1.15,2013-06-16 04:58:00,
2013-06-16 01:04:00,60.9,55.0,29.99,ENE,74,7.0,9.0,81,0.00,,,0.00,Wunderground v.1.15,2013-06-16 05:04:00,
2013-06-16 01:10:00,60.9,55.4,29.99,ENE,74,7.0,9.0,82,0.00,,,0.00,Wunderground v.1.15,2013-06-16 05:10:00,
2013-06-16 01:16:00,60.6,55.1,29.98,ENE,73,6.0,9.0,82,0.00,,,0.00,Wunderground v.1.15,2013-06-16 05:16:00,
2013-06-16 01:22:00,60.6,55.1,29.99,ENE,73,6.0,9.0,82,0.00,,,0.00,Wunderground v.1.15,2013-06-16 05:22:00,
2013-06-16 01:28:00,60.7,54.8,29.98,ENE,73,7.0,9.0,81,0.00,,,0.00,Wunderground v.1.15,2013-06-16 05:28:00,
2013-06-16 01:34:00,61.0,54.4,29.98,ENE,73,8.0,12.0,79,0.00,,,0.00,Wunderground v.1.15,2013-06-16 05:34:00,
2013-06-16 01:40:00,61.3,54.7,29.98,ENE,73,9.0,9.0,79,0.00,,,0.00,Wunderground v.1.15,2013-06-16 05:40:00,
2013-06-16 01:46:00,61.6,54.3,29.98,ENE,73,8.0,9.0,77,0.00,,,0.00,Wunderground v.1.15,2013-06-16 05:46:00,
2013-06-16 01:52:00,62.0,54.3,29.98,ENE,74,8.0,9.0,76,0.00,,,0.00,Wunderground v.1.15,2013-06-16 05:52:00,
2013-06-16 01:58:00,62.1,54.1,29.97,ENE,73,6.0,9.0,75,0.00,,,0.00,Wunderground v.1.15,2013-06-16 05:58:00,
2013-06-16 02:04:00,62.1,54.4,29.97,ENE,74,5.0,9.0,76,0.00,,,0.00,Wunderground v.1.15,2013-06-16 06:04:00,
2013-06-16 02:10:00,61.8,54.9,29.98,ENE,73,4.0,9.0,78,0.00,,,0.00,Wunderground v.1.15,2013-06-16 06:10:00,
2013-06-16 02:16:00,61.6,53.6,29.98,ENE,73,4.0,9.0,75,0.00,,,0.00,Wunderground v.1.15,2013-06-16 06:16:00,
2013-06-16 02:22:00,61.5,52.8,29.98,ENE,74,4.0,9.0,73,0.00,,,0.00,Wunderground v.1.15,2013-06-16 06:22:00,
2013-06-16 02:28:00,61.5,52.0,29.98,ENE,73,3.0,9.0,71,0.00,,,0.00,Wunderground v.1.15,2013-06-16 06:28:00,
2013-06-16 02:34:00,61.6,51.3,29.98,ENE,74,3.0,9.0,69,0.00,,,0.00,Wunderground v.1.15,2013-06-16 06:34:00,
2013-06-16 02:40:00,61.4,51.1,29.97,ENE,74,2.0,9.0,69,0.00,,,0.00,Wunderground v.1.15,2013-06-16 06:40:00,
2013-06-16 02:46:00,61.4,50.7,29.97,ENE,73,2.0,9.0,68,0.00,,,0.00,Wunderground v.1.15,2013-06-16 06:46:00,
2013-06-16 02:52:00,61.2,51.3,29.97,ENE,73,2.0,9.0,70,0.00,,,0.00,Wunderground v.1.15,2013-06-16 06:52:00,
2013-06-16 02:58:00,61.6,51.7,29.97,ENE,73,2.0,9.0,70,0.00,,,0.00,Wunderground v.1.15,2013-06-16 06:58:00,
2013-06-16 03:04:00,62.0,51.7,29.97,ENE,74,3.0,9.0,69,0.00,,,0.00,Wunderground v.1.15,2013-06-16 07:04:00,
2013-06-16 03:10:00,62.4,52.1,29.97,ENE,73,3.0,9.0,69,0.00,,,0.00,Wunderground v.1.15,2013-06-16 07:10:00,
2013-06-16 03:16:00,62.4,52.1,29.97,ENE,73,2.0,9.0,69,0.00,,,0.00,Wunderground v.1.15,2013-06-16 07:16:00,
2013-06-16 03:22:00,62.3,52.4,29.97,ENE,74,2.0,9.0,70,0.00,,,0.00,Wunderground v.1.15,2013-06-16 07:22:00,
2013-06-16 03:28:00,62.3,52.4,29.97,ENE,73,2.0,9.0,70,0.00,,,0.00,Wunderground v.1.15,2013-06-16 07:28:00,
2013-06-16 03:34:00,62.3,52.4,29.96,ENE,73,2.0,9.0,70,0.00,,,0.00,Wunderground v.1.15,2013-06-16 07:34:00,
2013-06-16 03:40:00,62.3,52.4,29.96,ENE,73,3.0,9.0,70,0.00,,,0.00,Wunderground v.1.15,2013-06-16 07:40:00,
2013-06-16 03:46:00,62.6,52.3,29.97,ENE,73,4.0,10.0,69,0.00,,,0.00,Wunderground v.1.15,2013-06-16 07:46:00,
2013-06-16 03:52:00,62.7,52.4,29.97,ENE,73,5.0,9.0,69,0.00,,,0.00,Wunderground v.1.15,2013-06-16 07:52:00,
2013-06-16 03:58:00,62.6,52.3,29.97,ENE,73,5.0,9.0,69,0.00,,,0.00,Wunderground v.1.15,2013-06-16 07:58:00,
2013-06-16 04:04:00,62.6,51.9,29.97,ENE,73,5.0,9.0,68,0.00,,,0.00,Wunderground v.1.15,2013-06-16 08:04:00,
2013-06-16 04:10:00,62.6,51.9,29.97,ENE,73,5.0,9.0,68,0.00,,,0.00,Wunderground v.1.15,2013-06-16 08:10:00,
2013-06-16 04:16:00,62.3,52.0,29.97,ENE,73,4.0,9.0,69,0.00,,,0.00,Wunderground v.1.15,2013-06-16 08:16:00,
2013-06-16 04:22:00,61.9,52.0,29.97,ENE,73,4.0,9.0,70,0.00,,,0.00,Wunderground v.1.15,2013-06-16 08:22:00,
2013-06-16 04:28:00,62.0,52.1,29.97,ENE,73,4.0,9.0,70,0.00,,,0.00,Wunderground v.1.15,2013-06-16 08:28:00,
2013-06-16 04:34:00,62.2,52.3,29.96,ENE,73,4.0,9.0,70,0.00,,,0.00,Wunderground v.1.15,2013-06-16 08:34:00,
2013-06-16 04:40:00,62.2,52.3,29.96,ENE,73,4.0,9.0,70,0.00,,,0.00,Wunderground v.1.15,2013-06-16 08:40:00,
2013-06-16 04:46:00,62.2,52.3,29.96,ENE,73,4.0,9.0,70,0.00,,,0.00,Wunderground v.1.15,2013-06-16 08:46:00,
2013-06-16 04:52:00,62.4,52.5,29.97,ENE,73,4.0,9.0,70,0.00,,,0.00,Wunderground v.1.15,2013-06-16 08:52:00,
2013-06-16 04:58:00,62.5,52.6,29.96,ENE,73,5.0,9.0,70,0.00,,,0.00,Wunderground v.1.15,2013-06-16 08:58:00,
2013-06-16 05:04:00,62.5,52.6,29.96,ENE,74,5.0,9.0,70,0.00,,,0.00,Wunderground v.1.15,2013-06-16 09:04:00,
2013-06-16 05:10:00,62.4,52.5,29.96,ENE,74,4.0,4.0,70,0.00,,,0.00,Wunderground v.1.15,2013-06-16 09:10:00,
2013-06-16 05:16:00,62.3,52.4,29.96,ENE,74,5.0,9.0,70,0.00,,,0.00,Wunderground v.1.15,2013-06-16 09:16:00,
2013-06-16 05:22:00,62.0,52.1,29.96,ENE,73,4.0,9.0,70,0.00,,,0.00,Wunderground v.1.15,2013-06-16 09:22:00,
2013-06-16 05:28:00,61.9,52.4,29.96,ENE,73,4.0,9.0,71,0.00,,,0.00,Wunderground v.1.15,2013-06-16 09:28:00,
2013-06-16 05:34:00,61.9,52.8,29.97,ENE,73,5.0,10.0,72,0.00,,,0.00,Wunderground v.1.15,2013-06-16 09:34:00,
2013-06-16 05:40:00,61.8,53.1,29.97,ENE,74,5.0,9.0,73,0.00,,,0.00,Wunderground v.1.15,2013-06-16 09:40:00,
2013-06-16 05:46:00,61.8,53.1,29.97,ENE,73,5.0,9.0,73,0.00,,,0.00,Wunderground v.1.15,2013-06-16 09:46:00,
2013-06-16 05:52:00,61.7,53.3,29.97,ENE,73,5.0,9.0,74,0.00,,,0.00,Wunderground v.1.15,2013-06-16 09:52:00,
2013-06-16 05:58:00,61.8,53.4,29.97,ENE,73,5.0,9.0,74,0.00,,,0.00,Wunderground v.1.15,2013-06-16 09:58:00,
2013-06-16 06:04:00,61.8,53.4,29.97,ENE,73,5.0,9.0,74,0.00,,,0.00,Wunderground v.1.15,2013-06-16 10:04:00,
2013-06-16 06:10:00,61.9,53.1,29.97,ENE,73,6.0,10.0,73,0.00,,,0.00,Wunderground v.1.15,2013-06-16 10:10:00,
2013-06-16 06:16:00,62.0,53.2,29.97,ENE,73,7.0,10.0,73,0.00,,,0.00,Wunderground v.1.15,2013-06-16 10:16:00,
2013-06-16 06:22:00,62.0,53.2,29.97,ENE,73,7.0,11.0,73,0.00,,,0.00,Wunderground v.1.15,2013-06-16 10:22:00,
2013-06-16 06:28:00,62.0,52.9,29.97,ENE,73,7.0,11.0,72,0.00,,,0.00,Wunderground v.1.15,2013-06-16 10:28:00,
2013-06-16 06:34:00,62.1,53.0,29.97,ENE,74,7.0,9.0,72,0.00,,,0.00,Wunderground v.1.15,2013-06-16 10:34:00,
2013-06-16 06:40:00,62.2,53.1,29.97,ENE,74,7.0,10.0,72,0.00,,,0.00,Wunderground v.1.15,2013-06-16 10:40:00,
2013-06-16 06:46:00,62.3,53.2,29.97,ENE,74,7.0,11.0,72,0.00,,,0.00,Wunderground v.1.15,2013-06-16 10:46:00,
2013-06-16 06:52:00,62.2,53.1,29.97,ENE,73,8.0,9.0,72,0.00,,,0.00,Wunderground v.1.15,2013-06-16 10:52:00,
2013-06-16 06:58:00,62.3,53.2,29.97,ENE,74,7.0,9.0,72,0.00,,,0.00,Wunderground v.1.15,2013-06-16 10:58:00,
2013-06-16 07:04:00,62.4,53.3,29.97,ENE,73,7.0,11.0,72,0.00,,,0.00,Wunderground v.1.15,2013-06-16 11:04:00,
2013-06-16 07:10:00,62.4,53.3,29.96,ENE,74,8.0,9.0,72,0.00,,,0.00,Wunderground v.1.15,2013-06-16 11:10:00,
2013-06-16 07:16:00,62.5,53.3,29.96,ENE,74,7.0,9.0,72,0.00,,,0.00,Wunderground v.1.15,2013-06-16 11:16:00,
2013-06-16 07:22:00,62.6,53.4,29.96,ENE,72,7.0,10.0,72,0.00,,,0.00,Wunderground v.1.15,2013-06-16 11:22:00,
2013-06-16 07:28:00,62.8,53.6,29.95,ENE,72,7.0,10.0,72,0.00,,,0.00,Wunderground v.1.15,2013-06-16 11:28:00,
2013-06-16 07:34:00,63.1,53.5,29.96,ENE,72,8.0,11.0,71,0.00,,,0.00,Wunderground v.1.15,2013-06-16 11:34:00,
2013-06-16 07:40:00,63.3,53.7,29.96,ENE,72,8.0,8.0,71,0.00,,,0.00,Wunderground v.1.15,2013-06-16 11:40:00,
2013-06-16 07:46:00,63.9,54.3,29.96,ENE,72,8.0,10.0,71,0.00,,,0.00,Wunderground v.1.15,2013-06-16 11:46:00,
2013-06-16 07:52:00,64.2,53.8,29.96,ENE,72,7.0,11.0,69,0.00,,,0.00,Wunderground v.1.15,2013-06-16 11:52:00,
2013-06-16 07:58:00,64.5,54.1,29.96,ENE,72,7.0,11.0,69,0.00,,,0.00,Wunderground v.1.15,2013-06-16 11:58:00,
2013-06-16 08:04:00,64.7,54.3,29.96,ENE,74,7.0,9.0,69,0.00,,,0.00,Wunderground v.1.15,2013-06-16 12:04:00,
2013-06-16 08:10:00,65.1,54.7,29.96,ENE,73,6.0,10.0,69,0.00,,,0.00,Wunderground v.1.15,2013-06-16 12:10:00,
2013-06-16 08:16:00,65.4,54.6,29.96,ENE,73,6.0,11.0,68,0.00,,,0.00,Wunderground v.1.15,2013-06-16 12:16:00,
2013-06-16 08:22:00,65.7,55.2,29.96,ENE,74,6.0,10.0,69,0.00,,,0.00,Wunderground v.1.15,2013-06-16 12:22:00,
2013-06-16 08:28:00,65.9,55.0,29.96,ENE,73,6.0,10.0,68,0.00,,,0.00,Wunderground v.1.15,2013-06-16 12:28:00,
2013-06-16 08:34:00,66.1,55.2,29.96,ENE,73,6.0,9.0,68,0.00,,,0.00,Wunderground v.1.15,2013-06-16 12:34:00,
2013-06-16 08:40:00,66.2,55.3,29.96,ENE,74,6.0,9.0,68,0.00,,,0.00,Wunderground v.1.15,2013-06-16 12:40:00,
2013-06-16 08:46:00,66.6,56.5,29.96,ENE,73,6.0,9.0,70,0.00,,,0.00,Wunderground v.1.15,2013-06-16 12:46:00,
2013-06-16 08:52:00,66.7,56.2,29.95,ENE,73,6.0,12.0,69,0.00,,,0.00,Wunderground v.1.15,2013-06-16 12:52:00,
2013-06-16 08:58:00,67.0,56.5,29.95,ENE,72,5.0,12.0,69,0.00,,,0.00,Wunderground v.1.15,2013-06-16 12:58:00,
2013-06-16 09:04:00,67.3,56.8,29.95,ENE,72,5.0,9.0,69,0.00,,,0.00,Wunderground v.1.15,2013-06-16 13:04:00,
2013-06-16 09:10:00,67.4,56.9,29.95,ENE,72,5.0,9.0,69,0.00,,,0.00,Wunderground v.1.15,2013-06-16 13:10:00,
2013-06-16 09:16:00,67.4,56.9,29.95,ENE,72,6.0,9.0,69,0.00,,,0.00,Wunderground v.1.15,2013-06-16 13:16:00,
2013-06-16 09:22:00,67.3,57.2,29.95,ENE,72,6.0,9.0,70,0.00,,,0.00,Wunderground v.1.15,2013-06-16 13:22:00,
2013-06-16 09:28:00,67.5,57.4,29.95,ENE,72,6.0,11.0,70,0.00,,,0.00,Wunderground v.1.15,2013-06-16 13:28:00,
2013-06-16 09:34:00,68.0,57.8,29.95,ENE,72,5.0,9.0,70,0.00,,,0.00,Wunderground v.1.15,2013-06-16 13:34:00,
2013-06-16 09:40:00,68.2,57.6,29.95,ENE,72,5.0,9.0,69,0.00,,,0.00,Wunderground v.1.15,2013-06-16 13:40:00,
2013-06-16 09:46:00,68.0,58.2,29.94,ENE,72,7.0,11.0,71,0.00,,,0.00,Wunderground v.1.15,2013-06-16 13:46:00,
2013-06-16 09:52:00,68.2,58.4,29.94,ENE,72,7.0,9.0,71,0.00,,,0.00,Wunderground v.1.15,2013-06-16 13:52:00,
2013-06-16 09:58:00,68.8,59.0,29.94,ENE,72,5.0,10.0,71,0.00,,,0.00,Wunderground v.1.15,2013-06-16 13:58:00,
2013-06-16 10:04:00,68.8,59.0,29.94,ENE,72,6.0,12.0,71,0.00,,,0.00,Wunderground v.1.15,2013-06-16 14:04:00,
2013-06-16 10:10:00,69.2,59.4,29.94,ENE,72,6.0,9.0,71,0.00,,,0.00,Wunderground v.1.15,2013-06-16 14:10:00,
2013-06-16 10:16:00,69.4,59.6,29.94,ENE,72,6.0,12.0,71,0.00,,,0.00,Wunderground v.1.15,2013-06-16 14:16:00,
2013-06-16 10:22:00,69.3,59.1,29.94,ENE,72,7.0,7.0,70,0.00,,,0.00,Wunderground v.1.15,2013-06-16 14:22:00,
2013-06-16 10:28:00,69.4,59.6,29.94,ENE,72,7.0,10.0,71,0.00,,,0.00,Wunderground v.1.15,2013-06-16 14:28:00,
2013-06-16 10:34:00,69.9,60.5,29.94,ENE,72,5.0,10.0,72,0.00,,,0.00,Wunderground v.1.15,2013-06-16 14:34:00,
2013-06-16 10:40:00,70.0,60.6,29.94,ENE,72,6.0,9.0,72,0.00,,,0.00,Wunderground v.1.15,2013-06-16 14:40:00,
2013-06-16 10:46:00,69.4,59.6,29.93,ENE,72,7.0,10.0,71,0.00,,,0.00,Wunderground v.1.15,2013-06-16 14:46:00,
2013-06-16 10:52:00,69.4,60.4,29.93,ENE,72,7.0,9.0,73,0.00,,,0.00,Wunderground v.1.15,2013-06-16 14:52:00,
2013-06-16 10:58:00,69.9,61.2,29.93,ENE,72,6.0,9.0,74,0.00,,,0.00,Wunderground v.1.15,2013-06-16 14:58:00,
2013-06-16 11:04:00,70.2,61.1,29.93,ENE,72,6.0,9.0,73,0.00,,,0.00,Wunderground v.1.15,2013-06-16 15:04:00,
2013-06-16 11:10:00,70.6,60.7,29.93,ENE,72,6.0,6.0,71,0.00,,,0.00,Wunderground v.1.15,2013-06-16 15:10:00,
2013-06-16 11:16:00,71.1,61.2,29.93,ENE,72,5.0,9.0,71,0.00,,,0.00,Wunderground v.1.15,2013-06-16 15:16:00,
2013-06-16 11:22:00,71.5,61.2,29.93,ENE,72,5.0,9.0,70,0.00,,,0.00,Wunderground v.1.15,2013-06-16 15:22:00,
2013-06-16 11:28:00,70.9,61.0,29.93,ENE,72,6.0,10.0,71,0.00,,,0.00,Wunderground v.1.15,2013-06-16 15:28:00,
2013-06-16 11:34:00,70.7,60.0,29.92,ENE,71,8.0,9.0,69,0.00,,,0.00,Wunderground v.1.15,2013-06-16 15:34:00,
2013-06-16 11:40:00,70.8,61.7,29.92,ENE,71,8.0,8.0,73,0.00,,,0.00,Wunderground v.1.15,2013-06-16 15:40:00,
2013-06-16 11:46:00,71.3,61.4,29.92,ENE,71,7.0,9.0,71,0.00,,,0.00,Wunderground v.1.15,2013-06-16 15:46:00,
2013-06-16 11:52:00,70.8,60.9,29.92,ENE,72,7.0,15.0,71,0.00,,,0.00,Wunderground v.1.15,2013-06-16 15:52:00,
2013-06-16 11:58:00,70.8,60.9,29.92,ENE,74,7.0,15.0,71,0.00,,,0.00,Wunderground v.1.15,2013-06-16 15:58:00,
2013-06-16 12:04:00,70.8,60.5,29.92,ENE,74,6.0,9.0,70,0.00,,,0.00,Wunderground v.1.15,2013-06-16 16:04:00,
2013-06-16 12:10:00,70.5,60.6,29.92,ENE,74,7.0,7.0,71,0.00,,,0.00,Wunderground v.1.15,2013-06-16 16:10:00,
2013-06-16 12:16:00,70.5,61.0,29.92,ENE,73,7.0,9.0,72,0.00,,,0.00,Wunderground v.1.15,2013-06-16 16:16:00,
2013-06-16 12:22:00,70.6,60.7,29.92,ENE,74,7.0,9.0,71,0.00,,,0.00,Wunderground v.1.15,2013-06-16 16:22:00,
2013-06-16 12:28:00,70.6,61.1,29.92,ENE,74,6.0,11.0,72,0.00,,,0.00,Wunderground v.1.15,2013-06-16 16:28:00,
2013-06-16 12:34:00,70.6,62.3,29.92,ENE,74,6.0,9.0,75,0.00,,,0.00,Wunderground v.1.15,2013-06-16 16:34:00,
2013-06-16 12:40:00,70.1,61.0,29.92,ENE,73,6.0,9.0,73,0.00,,,0.00,Wunderground v.1.15,2013-06-16 16:40:00,
2013-06-16 12:46:00,69.5,61.2,29.91,ENE,74,6.0,9.0,75,0.00,,,0.00,Wunderground v.1.15,2013-06-16 16:46:00,
2013-06-16 12:52:00,69.7,61.0,29.92,ENE,74,6.0,8.0,74,0.00,,,0.00,Wunderground v.1.15,2013-06-16 16:52:00,
2013-06-16 12:58:00,70.3,60.8,29.92,ENE,74,7.0,9.0,72,0.00,,,0.00,Wunderground v.1.15,2013-06-16 16:58:00,
2013-06-16 13:04:00,70.9,62.2,29.91,ENE,73,6.0,9.0,74,0.00,,,0.00,Wunderground v.1.15,2013-06-16 17:04:00,
2013-06-16 13:10:00,71.7,62.6,29.91,ENE,75,5.0,5.0,73,0.00,,,0.00,Wunderground v.1.15,2013-06-16 17:10:00,
2013-06-16 13:16:00,71.4,61.9,29.91,ENE,75,4.0,10.0,72,0.00,,,0.00,Wunderground v.1.15,2013-06-16 17:16:00,
2013-06-16 13:22:00,71.2,61.3,29.91,ENE,75,5.0,9.0,71,0.00,,,0.00,Wunderground v.1.15,2013-06-16 17:22:00,
2013-06-16 13:28:00,70.7,62.0,29.91,ENE,75,5.0,9.0,74,0.00,,,0.00,Wunderground v.1.15,2013-06-16 17:28:00,
2013-06-16 13:34:00,70.8,62.5,29.91,ENE,75,4.0,9.0,75,0.00,,,0.00,Wunderground v.1.15,2013-06-16 17:34:00,
2013-06-16 13:40:00,71.1,62.0,29.91,ENE,75,5.0,5.0,73,0.00,,,0.00,Wunderground v.1.15,2013-06-16 17:40:00,
2013-06-16 13:46:00,71.1,62.4,29.91,ENE,75,5.0,9.0,74,0.00,,,0.00,Wunderground v.1.15,2013-06-16 17:46:00,
2013-06-16 13:52:00,71.3,63.0,29.91,ENE,75,4.0,9.0,75,0.00,,,0.00,Wunderground v.1.15,2013-06-16 17:52:00,
2013-06-16 13:58:00,72.0,62.9,29.91,ENE,75,4.0,9.0,73,0.00,,,0.00,Wunderground v.1.15,2013-06-16 17:58:00,
2013-06-16 14:04:00,71.6,62.5,29.91,ENE,75,5.0,10.0,73,0.00,,,0.00,Wunderground v.1.15,2013-06-16 18:04:00,
2013-06-16 14:10:00,71.3,63.0,29.91,ENE,75,5.0,9.0,75,0.00,,,0.00,Wunderground v.1.15,2013-06-16 18:10:00,
2013-06-16 14:16:00,71.1,62.8,29.91,ENE,75,5.0,9.0,75,0.00,,,0.00,Wunderground v.1.15,2013-06-16 18:16:00,
2013-06-16 14:22:00,70.9,62.6,29.91,ENE,73,6.0,9.0,75,0.00,,,0.00,Wunderground v.1.15,2013-06-16 18:22:00,
2013-06-16 14:28:00,70.7,62.8,29.91,ENE,74,6.0,9.0,76,0.00,,,0.00,Wunderground v.1.15,2013-06-16 18:28:00,
2013-06-16 14:34:00,70.5,62.2,29.91,ENE,72,6.0,10.0,75,0.00,,,0.00,Wunderground v.1.15,2013-06-16 18:34:00,
2013-06-16 14:40:00,70.1,61.4,29.91,ENE,75,8.0,9.0,74,0.00,,,0.00,Wunderground v.1.15,2013-06-16 18:40:00,
2013-06-16 14:46:00,69.6,62.1,29.91,ENE,75,7.0,11.0,77,0.00,,,0.00,Wunderground v.1.15,2013-06-16 18:46:00,
2013-06-16 14:52:00,69.9,62.4,29.91,ENE,73,5.0,9.0,77,0.00,,,0.00,Wunderground v.1.15,2013-06-16 18:52:00,
2013-06-16 14:58:00,70.3,62.0,29.91,ENE,74,6.0,11.0,75,0.00,,,0.00,Wunderground v.1.15,2013-06-16 18:58:00,
2013-06-16 15:04:00,70.6,62.7,29.90,ENE,72,6.0,9.0,76,0.00,,,0.00,Wunderground v.1.15,2013-06-16 19:04:00,
2013-06-16 15:10:00,70.3,62.0,29.91,ENE,72,6.0,6.0,75,0.00,,,0.00,Wunderground v.1.15,2013-06-16 19:10:00,
2013-06-16 15:16:00,70.5,62.6,29.90,ENE,72,5.0,9.0,76,0.00,,,0.00,Wunderground v.1.15,2013-06-16 19:16:00,
2013-06-16 15:22:00,70.4,62.5,29.90,ENE,72,4.0,9.0,76,0.00,,,0.00,Wunderground v.1.15,2013-06-16 19:22:00,
2013-06-16 15:28:00,70.0,62.5,29.90,ENE,71,5.0,9.0,77,0.00,,,0.00,Wunderground v.1.15,2013-06-16 19:28:00,
2013-06-16 15:34:00,69.8,62.3,29.90,ENE,71,6.0,11.0,77,0.00,,,0.00,Wunderground v.1.15,2013-06-16 19:34:00,
2013-06-16 15:40:00,69.7,62.5,29.89,ENE,71,6.0,6.0,78,0.00,,,0.00,Wunderground v.1.15,2013-06-16 19:40:00,
2013-06-16 15:46:00,69.9,62.7,29.89,ENE,71,5.0,9.0,78,0.00,,,0.00,Wunderground v.1.15,2013-06-16 19:46:00,
2013-06-16 15:52:00,70.3,63.1,29.89,ENE,71,5.0,9.0,78,0.00,,,0.00,Wunderground v.1.15,2013-06-16 19:52:00,
2013-06-16 15:58:00,70.6,63.4,29.89,ENE,71,5.0,11.0,78,0.00,,,0.00,Wunderground v.1.15,2013-06-16 19:58:00,
2013-06-16 16:04:00,70.6,62.7,29.89,ENE,72,5.0,12.0,76,0.00,,,0.00,Wunderground v.1.15,2013-06-16 20:04:00,
2013-06-16 16:10:00,70.6,62.7,29.89,ENE,72,6.0,6.0,76,0.00,,,0.00,Wunderground v.1.15,2013-06-16 20:10:00,
2013-06-16 16:16:00,70.5,62.2,29.89,ENE,72,6.0,10.0,75,0.00,,,0.00,Wunderground v.1.15,2013-06-16 20:16:00,
2013-06-16 16:22:00,70.2,62.3,29.89,ENE,73,6.0,9.0,76,0.00,,,0.00,Wunderground v.1.15,2013-06-16 20:22:00,
2013-06-16 16:28:00,69.9,62.4,29.89,ENE,73,7.0,9.0,77,0.00,,,0.00,Wunderground v.1.15,2013-06-16 20:28:00,
2013-06-16 16:34:00,69.7,62.2,29.88,ENE,72,8.0,11.0,77,0.00,,,0.00,Wunderground v.1.15,2013-06-16 20:34:00,
2013-06-16 16:40:00,69.9,62.0,29.88,ENE,72,7.0,7.0,76,0.00,,,0.00,Wunderground v.1.15,2013-06-16 20:40:00,
2013-06-16 16:46:00,70.0,62.5,29.88,ENE,72,6.0,12.0,77,0.00,,,0.00,Wunderground v.1.15,2013-06-16 20:46:00,
2013-06-16 16:52:00,69.9,62.7,29.88,ENE,72,5.0,9.0,78,0.00,,,0.00,Wunderground v.1.15,2013-06-16 20:52:00,
2013-06-16 16:58:00,69.9,62.7,29.88,ENE,72,6.0,9.0,78,0.00,,,0.00,Wunderground v.1.15,2013-06-16 20:58:00,
2013-06-16 17:04:00,69.8,62.3,29.88,ENE,71,6.0,10.0,77,0.00,,,0.00,Wunderground v.1.15,2013-06-16 21:04:00,
2013-06-16 17:10:00,69.7,62.2,29.88,ENE,70,7.0,9.0,77,0.00,,,0.00,Wunderground v.1.15,2013-06-16 21:10:00,
2013-06-16 17:16:00,69.6,61.7,29.88,ENE,71,7.0,12.0,76,0.00,,,0.00,Wunderground v.1.15,2013-06-16 21:16:00,
2013-06-16 17:22:00,69.5,61.6,29.88,ENE,74,7.0,9.0,76,0.00,,,0.00,Wunderground v.1.15,2013-06-16 21:22:00,
2013-06-16 17:28:00,69.6,61.3,29.88,ENE,71,8.0,11.0,75,0.00,,,0.00,Wunderground v.1.15,2013-06-16 21:28:00,
2013-06-16 17:34:00,69.7,61.4,29.88,ENE,71,9.0,9.0,75,0.00,,,0.00,Wunderground v.1.15,2013-06-16 21:34:00,
2013-06-16 17:40:00,69.7,61.4,29.88,ENE,75,8.0,11.0,75,0.00,,,0.00,Wunderground v.1.15,2013-06-16 21:40:00,
2013-06-16 17:46:00,69.7,61.8,29.88,ENE,73,9.0,11.0,76,0.00,,,0.00,Wunderground v.1.15,2013-06-16 21:46:00,
2013-06-16 17:52:00,69.8,61.5,29.88,ENE,73,9.0,9.0,75,0.00,,,0.00,Wunderground v.1.15,2013-06-16 21:52:00,
2013-06-16 17:58:00,69.6,61.3,29.88,ENE,72,9.0,18.0,75,0.00,,,0.00,Wunderground v.1.15,2013-06-16 21:58:00,
2013-06-16 18:04:00,69.5,61.6,29.88,ENE,75,9.0,11.0,76,0.00,,,0.00,Wunderground v.1.15,2013-06-16 22:04:00,
2013-06-16 18:10:00,69.4,61.5,29.87,ENE,74,9.0,10.0,76,0.00,,,0.00,Wunderground v.1.15,2013-06-16 22:10:00,
2013-06-16 18:16:00,69.3,61.8,29.87,ENE,74,9.0,11.0,77,0.00,,,0.00,Wunderground v.1.15,2013-06-16 22:16:00,
2013-06-16 18:22:00,69.4,61.9,29.88,ENE,73,8.0,10.0,77,0.00,,,0.00,Wunderground v.1.15,2013-06-16 22:22:00,
2013-06-16 18:28:00,69.4,61.9,29.88,ENE,72,8.0,11.0,77,0.00,,,0.00,Wunderground v.1.15,2013-06-16 22:28:00,
2013-06-16 18:34:00,69.4,61.9,29.88,ENE,72,9.0,18.0,77,0.00,,,0.00,Wunderground v.1.15,2013-06-16 22:34:00,
2013-06-16 18:40:00,69.1,61.6,29.88,ENE,72,9.0,9.0,77,0.00,,,0.00,Wunderground v.1.15,2013-06-16 22:40:00,
2013-06-16 18:46:00,69.0,61.9,29.88,ENE,72,7.0,9.0,78,0.00,,,0.00,Wunderground v.1.15,2013-06-16 22:46:00,
2013-06-16 18:52:00,68.9,61.8,29.89,ENE,74,7.0,9.0,78,0.00,,,0.00,Wunderground v.1.15,2013-06-16 22:52:00,
2013-06-16 18:58:00,68.9,61.8,29.89,ENE,73,7.0,11.0,78,0.00,,,0.00,Wunderground v.1.15,2013-06-16 22:58:00,
2013-06-16 19:04:00,69.0,61.5,29.89,ENE,73,7.0,16.0,77,0.00,,,0.00,Wunderground v.1.15,2013-06-16 23:04:00,
2013-06-16 19:10:00,69.0,61.9,29.89,ENE,72,7.0,9.0,78,0.00,,,0.00,Wunderground v.1.15,2013-06-16 23:10:00,
2013-06-16 19:16:00,68.8,62.0,29.89,ENE,72,6.0,9.0,79,0.00,,,0.00,Wunderground v.1.15,2013-06-16 23:16:00,
2013-06-16 19:22:00,67.4,62.1,29.89,ENE,72,7.0,10.0,83,0.19,,,0.03,Wunderground v.1.15,2013-06-16 23:22:00,
2013-06-16 19:28:00,66.6,61.9,29.89,ENE,72,7.0,11.0,85,0.07,,,0.03,Wunderground v.1.15,2013-06-16 23:28:00,
2013-06-16 19:34:00,66.2,62.5,29.90,ENE,72,6.0,9.0,88,1.19,,,0.11,Wunderground v.1.15,2013-06-16 23:34:00,
2013-06-16 19:40:00,65.2,62.2,29.89,ENE,72,8.0,9.0,90,0.21,,,0.20,Wunderground v.1.15,2013-06-16 23:40:00,
2013-06-16 19:46:00,64.8,61.8,29.89,ENE,72,9.0,15.0,90,0.07,,,0.20,Wunderground v.1.15,2013-06-16 23:46:00,
2013-06-16 19:52:00,64.9,62.2,29.89,ENE,72,9.0,15.0,91,0.19,,,0.23,Wunderground v.1.15,2013-06-16 23:52:00,
2013-06-16 19:58:00,64.9,62.5,29.90,ENE,72,9.0,15.0,92,0.07,,,0.23,Wunderground v.1.15,2013-06-16 23:58:00,
2013-06-16 20:04:00,65.0,62.6,29.90,ENE,78,10.0,11.0,92,0.04,,,0.23,Wunderground v.1.15,2013-06-17 00:04:00,
2013-06-16 20:10:00,64.9,62.5,29.90,ENE,78,9.0,9.0,92,0.00,,,0.23,Wunderground v.1.15,2013-06-17 00:10:00,
2013-06-16 20:16:00,64.7,62.9,29.90,ENE,77,7.0,13.0,94,0.00,,,0.23,Wunderground v.1.15,2013-06-17 00:16:00,
2013-06-16 20:22:00,64.5,62.7,29.90,ENE,77,8.0,11.0,94,0.00,,,0.23,Wunderground v.1.15,2013-06-17 00:22:00,
2013-06-16 20:28:00,64.5,62.4,29.90,ENE,77,9.0,11.0,93,0.00,,,0.23,Wunderground v.1.15,2013-06-17 00:28:00,
2013-06-16 20:34:00,64.3,62.2,29.90,ENE,73,9.0,12.0,93,0.00,,,0.24,Wunderground v.1.15,2013-06-17 00:34:00,
2013-06-16 20:40:00,64.2,62.1,29.90,ENE,72,10.0,12.0,93,0.00,,,0.24,Wunderground v.1.15,2013-06-17 00:40:00,
2013-06-16 20:46:00,63.8,62.0,29.90,ENE,71,10.0,17.0,94,0.00,,,0.24,Wunderground v.1.15,2013-06-17 00:46:00,
2013-06-16 20:52:00,63.5,62.0,29.90,ENE,72,11.0,12.0,95,0.00,,,0.24,Wunderground v.1.15,2013-06-17 00:52:00,
2013-06-16 20:58:00,63.2,61.7,29.90,ENE,72,12.0,12.0,95,0.00,,,0.24,Wunderground v.1.15,2013-06-17 00:58:00,
2013-06-16 21:04:00,63.0,61.8,29.90,ENE,72,11.0,11.0,96,0.00,,,0.24,Wunderground v.1.15,2013-06-17 01:04:00,
2013-06-16 21:10:00,63.0,61.8,29.90,ENE,73,11.0,17.0,96,0.00,,,0.24,Wunderground v.1.15,2013-06-17 01:10:00,
2013-06-16 21:16:00,62.9,61.7,29.90,ENE,75,10.0,17.0,96,0.00,,,0.24,Wunderground v.1.15,2013-06-17 01:16:00,
2013-06-16 21:22:00,62.8,61.9,29.90,ENE,75,8.0,9.0,97,0.00,,,0.24,Wunderground v.1.15,2013-06-17 01:22:00,
2013-06-16 21:28:00,62.8,61.9,29.90,ENE,75,9.0,14.0,97,0.00,,,0.24,Wunderground v.1.15,2013-06-17 01:28:00,
2013-06-16 21:34:00,62.8,61.9,29.90,ENE,75,10.0,10.0,97,0.00,,,0.24,Wunderground v.1.15,2013-06-17 01:34:00,
2013-06-16 21:40:00,62.8,61.6,29.90,ENE,71,9.0,11.0,96,0.00,,,0.24,Wunderground v.1.15,2013-06-17 01:40:00,
2013-06-16 21:46:00,62.8,61.6,29.91,ENE,70,9.0,11.0,96,0.00,,,0.24,Wunderground v.1.15,2013-06-17 01:46:00,
2013-06-16 21:52:00,62.7,61.5,29.91,ENE,75,10.0,15.0,96,0.00,,,0.24,Wunderground v.1.15,2013-06-17 01:52:00,
2013-06-16 21:58:00,62.8,61.6,29.91,ENE,72,11.0,15.0,96,0.00,,,0.24,Wunderground v.1.15,2013-06-17 01:58:00,
2013-06-16 22:04:00,62.7,61.8,29.91,ENE,73,10.0,12.0,97,0.00,,,0.24,Wunderground v.1.15,2013-06-17 02:04:00,
2013-06-16 22:10:00,62.7,61.8,29.91,ENE,77,10.0,10.0,97,0.00,,,0.24,Wunderground v.1.15,2013-06-17 02:10:00,
2013-06-16 22:16:00,62.8,61.9,29.92,ENE,75,10.0,12.0,97,0.00,,,0.25,Wunderground v.1.15,2013-06-17 02:16:00,
2013-06-16 22:22:00,62.7,61.8,29.92,ENE,74,11.0,15.0,97,0.00,,,0.25,Wunderground v.1.15,2013-06-17 02:22:00,
2013-06-16 22:28:00,62.6,61.4,29.92,ENE,73,11.0,17.0,96,0.00,,,0.25,Wunderground v.1.15,2013-06-17 02:28:00,
2013-06-16 22:34:00,62.5,61.0,29.92,ENE,73,10.0,12.0,95,0.00,,,0.25,Wunderground v.1.15,2013-06-17 02:34:00,
2013-06-16 22:40:00,62.5,60.7,29.92,ENE,70,10.0,10.0,94,0.00,,,0.25,Wunderground v.1.15,2013-06-17 02:40:00,
2013-06-16 22:46:00,62.3,60.8,29.92,ENE,72,10.0,18.0,95,0.00,,,0.25,Wunderground v.1.15,2013-06-17 02:46:00,
2013-06-16 22:52:00,62.1,60.7,29.92,ENE,77,9.0,15.0,95,0.00,,,0.25,Wunderground v.1.15,2013-06-17 02:52:00,
2013-06-16 22:58:00,62.2,60.8,29.91,ENE,75,9.0,15.0,95,0.00,,,0.26,Wunderground v.1.15,2013-06-17 02:58:00,
2013-06-16 23:04:00,62.1,60.7,29.91,ENE,75,9.0,11.0,95,0.00,,,0.26,Wunderground v.1.15,2013-06-17 03:04:00,
2013-06-16 23:10:00,61.9,60.7,29.91,ENE,77,9.0,10.0,96,0.00,,,0.26,Wunderground v.1.15,2013-06-17 03:10:00,
2013-06-16 23:16:00,61.9,60.5,29.91,ENE,75,9.0,10.0,95,0.00,,,0.26,Wunderground v.1.15,2013-06-17 03:16:00,
2013-06-16 23:22:00,61.9,60.5,29.90,ENE,74,10.0,12.0,95,0.00,,,0.26,Wunderground v.1.15,2013-06-17 03:22:00,
2013-06-16 23:28:00,61.8,60.4,29.90,ENE,74,10.0,12.0,95,0.00,,,0.26,Wunderground v.1.15,2013-06-17 03:28:00,
2013-06-16 23:34:00,61.7,60.5,29.90,ENE,72,9.0,10.0,96,0.00,,,0.26,Wunderground v.1.15,2013-06-17 03:34:00,
2013-06-16 23:40:00,61.7,60.3,29.90,ENE,73,9.0,9.0,95,0.00,,,0.26,Wunderground v.1.15,2013-06-17 03:40:00,
2013-06-16 23:46:00,61.7,60.3,29.89,ENE,76,10.0,14.0,95,0.00,,,0.26,Wunderground v.1.15,2013-06-17 03:46:00,
2013-06-16 23:52:00,61.9,60.5,29.89,ENE,78,10.0,11.0,95,0.00,,,0.26,Wunderground v.1.15,2013-06-17 03:52:00,
2013-06-16 23:58:00,62.0,60.6,29.89,ENE,77,9.0,14.0,95,0.00,,,0.26,Wunderground v.1.15,2013-06-17 03:58:00,